Time;durP1;ratioP1;P1;durP2;ratioP2;P2;SDS_P1;SDS_P2;PMS_P1;PMS_P2;Temp;Humidity;BMP_temperature;BMP_pressure;BME280_temperature;BME280_humidity;BME280_pressure;Samples;Min_cycle;Max_cycle;Signal;HPM_P1;HPM_P2
2022/08/10 00:01:01;;;;;;;2.25;1.10;;;;;;;28.90;33.68;102302.41;5033167;28;20033;-67
2022/08/10 00:03:26;;;;;;;0.88;0.70;;;;;;;28.83;33.20;102291.41;5031896;28;20036;-67
2022/08/10 00:05:53;;;;;;;2.03;0.82;;;;;;;28.81;32.81;102284.41;5031749;28;20029;-67
2022/08/10 00:08:20;;;;;;;1.73;0.52;;;;;;;28.77;33.74;102285.88;5031870;28;20041;-67
2022/08/10 00:10:45;;;;;;;5.82;0.98;;;;;;;28.71;33.51;102286.72;5031999;28;20029;-67
2022/08/10 00:13:11;;;;;;;1.05;0.77;;;;;;;28.63;33.45;102275.91;5015345;28;20464;-66
2022/08/10 00:15:37;;;;;;;0.93;0.80;;;;;;;28.60;33.67;102279.06;5033182;28;20501;-67
2022/08/10 00:18:02;;;;;;;1.23;0.82;;;;;;;28.53;33.31;102272.72;5015396;28;20030;-67
2022/08/10 00:20:28;;;;;;;1.42;1.20;;;;;;;28.47;33.13;102279.06;5032443;28;20437;-67
2022/08/10 00:22:53;;;;;;;1.38;0.80;;;;;;;28.36;33.72;102268.66;5035613;28;20050;-66
2022/08/10 00:25:18;;;;;;;1.10;0.80;;;;;;;28.35;33.78;102272.47;5018936;28;20384;-67
2022/08/10 00:27:44;;;;;;;2.03;0.80;;;;;;;28.30;33.74;102273.97;5002645;28;20091;-66
2022/08/10 00:30:10;;;;;;;4.00;1.00;;;;;;;28.27;34.13;102277.16;5036625;28;20080;-65
2022/08/10 00:32:35;;;;;;;0.65;0.65;;;;;;;28.21;33.60;102275.22;5035508;28;20064;-66
2022/08/10 00:35:01;;;;;;;1.33;0.90;;;;;;;28.20;33.87;102270.75;5035550;28;20071;-66
2022/08/10 00:37:26;;;;;;;2.85;0.70;;;;;;;28.19;34.26;102276.50;5036496;28;20026;-66
2022/08/10 00:39:51;;;;;;;2.42;0.63;;;;;;;28.13;33.99;102264.41;5035293;28;20033;-66
2022/08/10 00:42:17;;;;;;;4.68;1.10;;;;;;;28.14;33.55;102273.53;5036593;28;20029;-66
2022/08/10 00:44:48;;;;;;;1.75;0.55;;;;;;;28.09;33.58;102268.63;5036497;28;20071;-66
2022/08/10 00:47:14;;;;;;;1.90;0.83;;;;;;;28.01;33.58;102263.28;5018974;28;20037;-65
2022/08/10 00:49:40;;;;;;;0.85;0.60;;;;;;;27.99;34.39;102259.91;5018537;28;20277;-66
2022/08/10 00:52:06;;;;;;;1.35;0.90;;;;;;;27.97;34.45;102264.78;5035118;28;20060;-66
2022/08/10 00:54:33;;;;;;;0.88;0.63;;;;;;;27.94;34.38;102261.59;5018491;28;20075;-65
2022/08/10 00:56:59;;;;;;;2.22;1.35;;;;;;;27.92;34.68;102259.00;5017997;28;20025;-65
2022/08/10 00:59:24;;;;;;;6.03;0.93;;;;;;;27.88;34.35;102266.03;5035907;28;20394;-66
2022/08/10 01:01:50;;;;;;;2.30;1.52;;;;;;;27.82;33.95;102266.84;5018287;28;20026;-66
2022/08/10 01:04:15;;;;;;;2.15;0.90;;;;;;;27.80;34.58;102260.69;5018481;28;20517;-66
2022/08/10 01:06:50;;;;;;;1.02;0.40;;;;;;;27.76;34.28;102259.41;5035067;28;20053;-66
2022/08/10 01:09:18;;;;;;;2.75;0.82;;;;;;;27.75;34.28;102254.94;5034695;28;20029;-66
2022/08/10 01:11:43;;;;;;;3.88;0.82;;;;;;;27.70;34.79;102252.81;5036005;28;20029;-67
2022/08/10 01:14:12;;;;;;;1.42;0.90;;;;;;;27.68;34.52;102257.69;5035841;28;20368;-67
2022/08/10 01:16:46;;;;;;;2.35;0.90;;;;;;;27.63;34.66;102251.09;5035812;28;20391;-66
2022/08/10 01:19:54;;;;;;;1.98;0.68;;;;;;;27.60;34.35;102257.03;5034847;28;20488;-66
2022/08/10 01:22:25;;;;;;;3.83;1.15;;;;;;;27.59;34.98;102255.31;5035589;28;20054;-66
2022/08/10 01:25:11;;;;;;;0.70;0.70;;;;;;;27.55;34.44;102262.31;5034369;28;20025;-66
2022/08/10 01:28:14;;;;;;;4.75;0.80;;;;;;;27.52;34.61;102259.97;5034404;28;20391;-65
2022/08/10 01:30:41;;;;;;;4.75;0.98;;;;;;;27.47;34.90;102256.97;5033817;28;20036;-66
2022/08/10 01:33:36;;;;;;;3.33;1.23;;;;;;;27.45;35.34;102250.81;5016453;28;20067;-66
2022/08/10 01:36:13;;;;;;;2.70;0.68;;;;;;;27.41;34.76;102244.03;5034282;28;20033;-65
2022/08/10 01:38:42;;;;;;;1.05;0.80;;;;;;;27.42;35.01;102245.72;5034231;28;20483;-66
2022/08/10 01:41:11;;;;;;;1.27;1.08;;;;;;;27.39;35.40;102248.84;5017653;28;20026;-66
2022/08/10 01:43:42;;;;;;;1.42;0.90;;;;;;;27.38;35.49;102249.91;5017726;28;20435;-66
2022/08/10 01:46:08;;;;;;;1.73;1.05;;;;;;;27.36;34.99;102252.03;5017339;28;20479;-66
2022/08/10 01:48:38;;;;;;;4.63;1.05;;;;;;;27.33;35.15;102253.25;5033943;28;20471;-66
2022/08/10 01:51:22;;;;;;;3.83;0.85;;;;;;;27.32;34.75;102246.06;5017354;28;20025;-66
2022/08/10 01:53:51;;;;;;;1.70;0.80;;;;;;;27.29;35.57;102246.47;5033862;28;20030;-67
2022/08/10 01:56:18;;;;;;;5.07;0.90;;;;;;;27.27;34.76;102248.59;5035092;28;20075;-67
2022/08/10 01:58:57;;;;;;;1.20;0.90;;;;;;;27.24;35.22;102232.50;5017336;28;20033;-66
2022/08/10 02:01:25;;;;;;;0.75;0.60;;;;;;;27.22;35.45;102233.75;5033886;28;20033;-66
2022/08/10 02:03:55;;;;;;;2.35;0.95;;;;;;;27.18;35.47;102234.16;5033865;28;20056;-66
2022/08/10 02:06:22;;;;;;;1.08;0.80;;;;;;;27.15;35.37;102234.56;5017098;28;20029;-66
2022/08/10 02:08:48;;;;;;;1.25;1.13;;;;;;;27.14;35.72;102235.59;5017094;28;20036;-66
2022/08/10 02:11:14;;;;;;;2.28;1.05;;;;;;;27.08;35.88;102241.91;5017008;28;20033;-66
2022/08/10 02:13:42;;;;;;;4.57;1.08;;;;;;;27.09;35.82;102240.88;5033402;28;20034;-67
2022/08/10 02:16:09;;;;;;;3.33;0.90;;;;;;;27.07;35.31;102243.00;5033472;28;20364;-66
2022/08/10 02:18:34;;;;;;;1.98;1.15;;;;;;;27.04;35.68;102239.78;5016986;28;20116;-66
2022/08/10 02:21:03;;;;;;;3.40;1.00;;;;;;;27.02;35.79;102240.00;5033447;28;20064;-66
2022/08/10 02:23:30;;;;;;;2.85;0.90;;;;;;;26.98;36.06;102235.94;5033083;28;20517;-66
2022/08/10 02:25:58;;;;;;;3.42;1.15;;;;;;;26.95;35.65;102239.09;5016626;28;20033;-65
2022/08/10 02:28:26;;;;;;;1.60;1.10;;;;;;;26.92;35.40;102233.16;5033416;28;20032;-66
2022/08/10 02:30:53;;;;;;;5.80;1.20;;;;;;;26.89;35.93;102245.41;5033270;28;20056;-66
2022/08/10 02:33:20;;;;;;;1.75;1.23;;;;;;;26.87;35.59;102247.53;5033037;28;20037;-65
2022/08/10 02:35:46;;;;;;;2.30;1.10;;;;;;;26.82;35.96;102244.53;5016728;28;20057;-66
2022/08/10 02:38:12;;;;;;;1.70;1.00;;;;;;;26.84;36.21;102252.56;5016607;28;20032;-66
2022/08/10 02:40:41;;;;;;;0.82;0.77;;;;;;;26.79;36.33;102250.44;5016416;28;20124;-66
2022/08/10 02:43:30;;;;;;;2.08;1.08;;;;;;;26.78;36.00;102250.56;5016401;28;20025;-67
2022/08/10 02:46:02;;;;;;;1.90;1.10;;;;;;;26.73;36.49;102256.69;5032993;28;20706;-65
2022/08/10 02:48:40;;;;;;;1.10;1.00;;;;;;;26.70;35.77;102248.84;5016385;28;20113;-66
2022/08/10 02:51:12;;;;;;;2.50;1.10;;;;;;;26.69;36.00;102249.06;5032948;28;20269;-66
2022/08/10 02:53:48;;;;;;;2.03;0.98;;;;;;;26.62;35.85;102243.50;5032721;28;20025;-65
2022/08/10 02:56:17;;;;;;;4.22;1.02;;;;;;;26.62;36.11;102246.25;5032771;28;20021;-67
2022/08/10 02:58:45;;;;;;;1.50;0.82;;;;;;;26.58;36.80;102244.94;5033997;28;20067;-66
2022/08/10 03:01:13;;;;;;;3.08;1.13;;;;;;;26.55;36.01;102239.81;5032648;28;20052;-66
2022/08/10 03:03:45;;;;;;;1.35;0.80;;;;;;;26.49;36.54;102246.97;5032598;28;20025;-66
2022/08/10 03:06:14;;;;;;;1.77;1.42;;;;;;;26.41;36.46;102236.13;5015931;28;20029;-65
2022/08/10 03:08:43;;;;;;;1.38;1.20;;;;;;;26.38;36.35;102241.19;5032533;28;20034;-66
2022/08/10 03:11:15;;;;;;;2.72;1.08;;;;;;;26.31;36.68;102238.38;5032500;28;20032;-66
2022/08/10 03:13:42;;;;;;;2.30;1.00;;;;;;;26.28;36.39;102240.66;5032665;28;20060;-66
2022/08/10 03:16:08;;;;;;;3.63;1.15;;;;;;;26.23;36.62;102237.66;5032430;28;20032;-66
2022/08/10 03:18:34;;;;;;;2.22;1.10;;;;;;;26.21;36.72;102234.28;5032587;28;20025;-66
2022/08/10 03:21:00;;;;;;;2.42;1.17;;;;;;;26.19;36.98;102237.19;5032158;28;20083;-66
2022/08/10 03:23:26;;;;;;;2.63;1.05;;;;;;;26.17;36.60;102246.69;5032260;28;20152;-66
2022/08/10 03:25:55;;;;;;;3.45;1.10;;;;;;;26.17;37.37;102238.44;5032201;28;20482;-65
2022/08/10 03:28:22;;;;;;;3.83;1.30;;;;;;;26.15;36.71;102237.81;5015727;28;20095;-66
2022/08/10 03:30:47;;;;;;;2.72;1.50;;;;;;;26.15;36.96;102243.31;5032275;28;20376;-66
2022/08/10 03:33:14;;;;;;;1.50;1.10;;;;;;;26.11;36.84;102251.03;5032207;28;20036;-66
2022/08/10 03:35:40;;;;;;;2.45;1.20;;;;;;;26.08;37.11;102247.81;5032074;28;20143;-66
2022/08/10 03:38:05;;;;;;;2.83;1.08;;;;;;;26.04;37.43;102240.00;5032168;28;20056;-66
2022/08/10 03:40:33;;;;;;;2.20;1.63;;;;;;;26.02;37.07;102241.22;5032129;28;20037;-65
2022/08/10 03:43:01;;;;;;;2.20;1.48;;;;;;;25.95;37.42;102232.94;5032028;28;20051;-66
2022/08/10 03:45:27;;;;;;;3.15;1.20;;;;;;;25.91;37.23;102239.84;5015498;28;20025;-66
2022/08/10 03:47:53;;;;;;;1.90;1.13;;;;;;;25.87;37.24;102235.81;5015616;28;20036;-65
2022/08/10 03:50:19;;;;;;;3.22;1.33;;;;;;;25.86;37.26;102234.09;5032123;28;20076;-67
2022/08/10 03:52:45;;;;;;;3.10;1.13;;;;;;;25.83;37.38;102234.50;5031975;28;20029;-65
2022/08/10 03:55:11;;;;;;;2.08;1.42;;;;;;;25.78;37.73;102236.97;5015741;28;20144;-65
2022/08/10 03:57:36;;;;;;;1.40;1.25;;;;;;;25.78;37.33;102236.97;5036298;28;20087;-66
2022/08/10 04:00:03;;;;;;;3.42;1.38;;;;;;;25.73;37.37;102236.72;5035882;28;20112;-65
2022/08/10 04:02:29;;;;;;;3.50;1.08;;;;;;;25.71;38.13;102240.69;5019435;28;20026;-66
2022/08/10 04:04:55;;;;;;;1.85;1.27;;;;;;;25.67;37.70;102244.88;5019451;28;20117;-66
2022/08/10 04:07:20;;;;;;;4.18;2.05;;;;;;;25.61;37.47;102237.41;5036983;28;20104;-65
2022/08/10 04:09:46;;;;;;;3.17;1.45;;;;;;;25.56;37.51;102239.88;5019355;28;20122;-65
2022/08/10 04:12:11;;;;;;;2.55;1.25;;;;;;;25.50;38.22;102247.00;5035692;28;20025;-65
2022/08/10 04:14:37;;;;;;;4.30;1.50;;;;;;;25.47;37.92;102247.38;5019301;28;20402;-66
2022/08/10 04:17:02;;;;;;;2.95;1.08;;;;;;;25.45;37.73;102257.66;5019081;28;20022;-65
2022/08/10 04:19:28;;;;;;;3.42;1.40;;;;;;;25.39;38.29;102248.31;5019340;28;20042;-65
2022/08/10 04:21:59;;;;;;;2.22;1.40;;;;;;;25.36;38.08;102245.94;5018874;28;20029;-65
2022/08/10 04:24:25;;;;;;;2.90;1.45;;;;;;;25.35;38.34;102248.84;5035588;28;20017;-65
2022/08/10 04:26:50;;;;;;;2.28;1.42;;;;;;;25.36;38.58;102256.91;5035525;28;20068;-65
2022/08/10 04:29:16;;;;;;;7.55;1.63;;;;;;;25.36;37.95;102253.31;5019038;28;20030;-65
2022/08/10 04:31:43;;;;;;;3.10;1.65;;;;;;;25.34;38.31;102247.19;5035489;28;20025;-65
2022/08/10 04:34:09;;;;;;;2.33;1.60;;;;;;;25.37;38.41;102258.63;5018877;28;20073;-66
2022/08/10 04:36:35;;;;;;;7.07;1.60;;;;;;;25.39;38.98;102252.94;5036563;28;20025;-65
2022/08/10 04:39:01;;;;;;;3.33;1.60;;;;;;;25.40;38.33;102252.72;5018719;28;20029;-66
2022/08/10 04:41:27;;;;;;;2.53;1.70;;;;;;;25.42;38.83;102255.31;5035192;28;20041;-65
2022/08/10 04:43:52;;;;;;;2.80;1.70;;;;;;;25.45;38.84;102249.44;5018722;28;20040;-65
2022/08/10 04:46:18;;;;;;;2.58;1.50;;;;;;;25.49;38.78;102250.75;5036245;28;20033;-65
2022/08/10 04:48:43;;;;;;;6.32;3.42;;;;;;;25.50;39.08;102247.00;5018487;28;20080;-65
2022/08/10 04:51:14;;;;;;;2.70;2.13;;;;;;;25.58;38.98;102249.63;5035049;28;20356;-66
2022/08/10 04:53:39;;;;;;;4.55;1.73;;;;;;;25.63;39.01;102252.63;5034990;28;20017;-66
2022/08/10 04:56:07;;;;;;;4.85;1.70;;;;;;;25.68;38.78;102246.56;5034858;28;20041;-66
2022/08/10 04:58:33;;;;;;;2.28;1.67;;;;;;;25.75;39.07;102256.59;5036185;28;20033;-67
2022/08/10 05:00:58;;;;;;;3.35;1.60;;;;;;;25.80;39.27;102254.09;5034997;28;20442;-66
2022/08/10 05:03:24;;;;;;;3.30;1.60;;;;;;;25.88;39.22;102267.69;5034781;28;20038;-66
2022/08/10 05:05:49;;;;;;;3.17;1.83;;;;;;;25.95;39.13;102262.28;5034725;28;20032;-65
2022/08/10 05:08:15;;;;;;;2.70;1.48;;;;;;;26.03;38.85;102264.91;5033313;28;20061;-65
2022/08/10 05:10:40;;;;;;;2.17;1.52;;;;;;;26.13;38.60;102264.59;5017980;28;20057;-66
2022/08/10 05:13:05;;;;;;;4.03;1.60;;;;;;;26.22;39.01;102263.44;5034592;28;20029;-66
2022/08/10 05:15:31;;;;;;;2.72;1.92;;;;;;;26.34;38.43;102261.88;5035736;28;20036;-66
2022/08/10 05:17:56;;;;;;;7.93;2.00;;;;;;;26.42;38.73;102256.22;5018059;28;20052;-66
2022/08/10 05:20:21;;;;;;;1.63;1.50;;;;;;;26.53;39.04;102256.53;5017882;28;20038;-65
2022/08/10 05:22:47;;;;;;;4.22;2.95;;;;;;;26.65;38.21;102251.34;5034242;28;20061;-66
2022/08/10 05:25:14;;;;;;;4.95;1.92;;;;;;;26.78;38.39;102256.97;5034270;28;20052;-66
2022/08/10 05:27:41;;;;;;;5.03;2.20;;;;;;;26.92;38.47;102266.16;5034414;28;20099;-66
2022/08/10 05:30:09;;;;;;;1.98;1.42;;;;;;;27.03;38.97;102257.34;5034234;28;20414;-65
2022/08/10 05:32:35;;;;;;;6.35;2.10;;;;;;;27.13;38.17;102249.59;5034172;28;20043;-65
2022/08/10 05:35:00;;;;;;;4.40;1.77;;;;;;;27.20;38.17;102253.22;5034353;28;20486;-66
2022/08/10 05:37:28;;;;;;;4.40;2.08;;;;;;;27.32;38.32;102261.75;5017756;28;20095;-65
2022/08/10 05:39:54;;;;;;;4.28;2.17;;;;;;;27.38;37.69;102258.16;5034424;28;20471;-66
2022/08/10 05:42:20;;;;;;;7.82;2.22;;;;;;;27.46;38.21;102258.03;5017533;28;20100;-66
2022/08/10 05:44:46;;;;;;;2.72;2.25;;;;;;;27.54;38.03;102247.69;5034101;28;20031;-66
2022/08/10 05:47:11;;;;;;;3.50;1.88;;;;;;;27.54;38.09;102257.84;5035026;28;20025;-66
2022/08/10 05:49:36;;;;;;;3.17;1.98;;;;;;;27.63;38.53;102259.38;5017408;28;20038;-65
2022/08/10 05:52:02;;;;;;;6.00;2.30;;;;;;;27.75;37.39;102260.44;5035164;28;20029;-66
2022/08/10 05:54:27;;;;;;;5.82;2.13;;;;;;;27.91;37.59;102262.84;5034181;28;20132;-66
2022/08/10 05:56:53;;;;;;;3.03;2.15;;;;;;;28.05;37.96;102258.25;5034727;28;20025;-66
2022/08/10 05:59:19;;;;;;;4.45;1.83;;;;;;;28.23;37.99;102256.56;5053739;28;20091;-66
2022/08/10 06:01:46;;;;;;;2.92;1.98;;;;;;;28.38;37.68;102266.53;5016602;28;20424;-66
2022/08/10 06:04:17;;;;;;;3.50;1.95;;;;;;;28.45;37.19;102259.13;5017182;28;20108;-66
2022/08/10 06:06:44;;;;;;;4.85;2.10;;;;;;;28.63;37.47;102262.97;5033619;28;20025;-65
2022/08/10 06:09:10;;;;;;;4.75;2.22;;;;;;;28.78;37.08;102260.00;5033633;28;20033;-66
2022/08/10 06:11:36;;;;;;;4.55;2.38;;;;;;;28.90;37.28;102255.50;5021238;28;20029;-65
2022/08/10 06:16:47;;;;;;;4.78;2.42;;;;;;;29.25;36.74;102267.13;5054545;28;20028;-66
2022/08/10 06:19:13;;;;;;;4.65;2.08;;;;;;;29.40;36.88;102262.19;5036489;28;20065;-65
2022/08/10 06:21:39;;;;;;;2.97;2.10;;;;;;;29.55;36.30;102267.44;5036381;28;20025;-66
2022/08/10 06:24:08;;;;;;;4.47;2.42;;;;;;;29.71;35.92;102266.94;5036463;28;20394;-65
2022/08/10 06:26:33;;;;;;;2.58;2.15;;;;;;;29.87;36.35;102264.53;5053065;28;20029;-65
2022/08/10 06:29:05;;;;;;;3.80;2.00;;;;;;;30.03;36.18;102265.94;5036416;28;20498;-65
2022/08/10 06:31:31;;;;;;;;;;;;;;;30.17;36.05;102275.84;5053521;28;20025;-65
2022/08/10 06:33:58;;;;;;;5.60;2.53;;;;;;;30.33;34.90;102272.53;5052893;28;19967;-66
2022/08/10 06:36:24;;;;;;;2.63;2.10;;;;;;;30.43;35.62;102281.19;5046670;28;20383;-66
2022/08/10 06:38:50;;;;;;;3.92;2.03;;;;;;;30.53;35.47;102283.47;5016449;28;20025;-66
2022/08/10 06:41:20;;;;;;;3.63;2.40;;;;;;;30.55;35.31;102284.94;5034112;28;20029;-66
2022/08/10 06:43:49;;;;;;;6.00;3.10;;;;;;;30.67;34.83;102275.88;5032823;28;20029;-65
2022/08/10 06:46:16;;;;;;;2.42;2.00;;;;;;;30.75;35.26;102281.13;5032826;28;20475;-66
2022/08/10 06:48:54;;;;;;;7.45;2.20;;;;;;;30.83;34.72;102283.63;5032743;28;20034;-66
2022/08/10 06:51:22;;;;;;;5.80;2.40;;;;;;;30.96;34.92;102278.00;5032763;28;20052;-65
2022/08/10 06:53:51;;;;;;;9.35;2.70;;;;;;;31.08;35.17;102276.16;5032773;28;20048;-66
2022/08/10 06:56:22;;;;;;;8.73;2.80;;;;;;;31.23;34.20;102271.09;5032657;28;20053;-65
2022/08/10 06:59:03;;;;;;;3.50;2.00;;;;;;;31.42;34.38;102275.53;5032742;28;20036;-65
2022/08/10 07:01:32;;;;;;;4.07;2.20;;;;;;;31.58;34.37;102266.63;5032669;28;20108;-65
2022/08/10 07:04:02;;;;;;;3.33;2.40;;;;;;;31.76;34.25;102264.91;5016991;28;20032;-65
2022/08/10 07:06:28;;;;;;;8.52;2.50;;;;;;;31.87;33.69;102264.94;5052295;28;20482;-66
2022/08/10 07:08:54;;;;;;;4.95;2.53;;;;;;;31.98;33.68;102260.53;5035775;28;20044;-65
2022/08/10 07:11:20;;;;;;;5.88;3.35;;;;;;;32.13;33.77;102258.22;5052353;28;20486;-66
2022/08/10 07:13:46;;;;;;;4.45;2.60;;;;;;;32.30;33.03;102270.31;5035607;28;20025;-65
2022/08/10 07:16:12;;;;;;;4.55;2.22;;;;;;;32.45;32.94;102267.91;5053466;28;20033;-67
2022/08/10 07:18:38;;;;;;;3.10;2.08;;;;;;;32.61;33.24;102272.78;5052331;28;20090;-66
2022/08/10 07:21:04;;;;;;;3.10;1.92;;;;;;;32.77;33.29;102266.53;5052255;28;20025;-65
2022/08/10 07:23:30;;;;;;;3.47;2.38;;;;;;;32.98;32.09;102272.53;5051960;28;20041;-65
2022/08/10 07:25:57;;;;;;;3.50;2.20;;;;;;;33.12;32.38;102268.47;5053315;28;20509;-65
2022/08/10 07:28:23;;;;;;;6.20;2.58;;;;;;;33.26;32.83;102269.88;5052167;28;20025;-65
2022/08/10 07:30:50;;;;;;;2.95;2.10;;;;;;;33.40;32.35;102271.31;5052507;28;20101;-65
2022/08/10 07:33:17;;;;;;;4.07;2.47;;;;;;;33.57;32.47;102272.25;5053191;28;20029;-66
2022/08/10 07:35:43;;;;;;;7.15;2.30;;;;;;;33.75;31.29;102269.28;5035280;28;20107;-66
2022/08/10 07:38:22;;;;;;;6.68;2.63;;;;;;;33.95;31.63;102272.47;5051990;28;20108;-65
2022/08/10 07:40:50;;;;;;;5.05;2.42;;;;;;;34.13;31.50;102282.56;5053220;28;20027;-65
2022/08/10 07:43:17;;;;;;;2.83;2.22;;;;;;;34.26;30.92;102278.59;5053127;28;20025;-66
2022/08/10 07:45:43;;;;;;;5.78;2.03;;;;;;;34.43;31.52;102282.25;5035233;28;20032;-66
2022/08/10 07:48:35;;;;;;;6.95;2.00;;;;;;;34.68;31.29;102279.91;5051971;28;20025;-66
2022/08/10 07:51:01;;;;;;;2.78;2.00;;;;;;;34.85;31.13;102280.75;5050740;28;20454;-65
2022/08/10 07:53:33;;;;;;;3.10;1.92;;;;;;;35.03;30.30;102285.22;5051814;28;20029;-66
2022/08/10 07:56:01;;;;;;;3.58;2.38;;;;;;;35.15;30.86;102285.13;5051783;28;20017;-66
2022/08/10 07:58:28;;;;;;;6.57;2.35;;;;;;;35.35;30.46;102293.75;5051873;28;20021;-66
2022/08/10 08:00:55;;;;;;;3.50;2.17;;;;;;;35.47;29.92;102288.91;5051910;28;20079;-66
2022/08/10 08:03:27;;;;;;;3.22;2.10;;;;;;;35.61;30.26;102295.81;5035130;28;20017;-66
2022/08/10 08:05:53;;;;;;;2.72;2.00;;;;;;;35.74;29.62;102295.41;5051862;28;20478;-66
2022/08/10 08:08:19;;;;;;;4.50;2.30;;;;;;;35.90;30.27;102294.50;5051930;28;20036;-65
2022/08/10 08:10:45;;;;;;;3.90;1.90;;;;;;;36.08;29.73;102296.94;5052185;28;20048;-66
2022/08/10 08:13:12;;;;;;;1.95;1.73;;;;;;;36.22;29.82;102286.19;5051945;28;20064;-66
2022/08/10 08:15:39;;;;;;;3.58;1.80;;;;;;;36.27;29.36;102289.00;5051752;28;20032;-66
2022/08/10 08:18:06;;;;;;;3.97;2.10;;;;;;;36.36;29.43;102292.16;5051646;28;20056;-66
2022/08/10 08:20:31;;;;;;;5.70;2.05;;;;;;;36.50;29.02;102279.47;5051708;28;20031;-66
2022/08/10 08:22:57;;;;;;;3.25;1.88;;;;;;;36.62;29.23;102280.16;5034938;28;20049;-65
2022/08/10 08:25:23;;;;;;;2.20;1.90;;;;;;;36.77;29.01;102277.44;5053189;28;20037;-66
2022/08/10 08:27:52;;;;;;;3.60;1.42;;;;;;;36.92;28.23;102277.56;5051650;28;20100;-65
2022/08/10 08:30:19;;;;;;;4.57;2.17;;;;;;;37.06;28.47;102284.38;5035237;28;20087;-66
2022/08/10 08:32:45;;;;;;;3.17;1.80;;;;;;;37.21;28.56;102273.31;5035137;28;20490;-66
2022/08/10 08:35:14;;;;;;;2.60;1.77;;;;;;;37.35;28.29;102279.25;5051722;28;20095;-66
2022/08/10 08:37:40;;;;;;;4.30;1.80;;;;;;;37.51;28.28;102271.78;5051527;28;20405;-66
2022/08/10 08:40:09;;;;;;;3.88;2.00;;;;;;;37.65;27.70;102276.59;5051530;28;20021;-66
2022/08/10 08:42:53;;;;;;;5.43;1.67;;;;;;;37.81;27.19;102272.72;5037288;28;20098;-66
2022/08/10 08:45:39;;;;;;;1.35;1.25;;;;;;;37.96;27.07;102274.75;5055243;28;20520;-66
2022/08/10 08:48:10;;;;;;;5.47;1.42;;;;;;;38.15;27.09;102272.25;5055209;28;20052;-66
2022/08/10 08:50:44;;;;;;;6.53;2.20;;;;;;;38.31;27.40;102280.38;5056409;28;20029;-66
2022/08/10 08:53:09;;;;;;;1.95;1.50;;;;;;;38.45;27.37;102267.53;5055306;28;20052;-66
2022/08/10 08:55:52;;;;;;;7.53;1.65;;;;;;;38.62;26.30;102267.22;5056528;28;20475;-66
2022/08/10 08:58:39;;;;;;;4.53;1.55;;;;;;;38.81;26.78;102267.50;5038446;28;20486;-66
2022/08/10 09:01:18;;;;;;;6.05;1.67;;;;;;;38.92;25.70;102260.75;5056235;28;20021;-66
2022/08/10 09:03:55;;;;;;;2.47;1.42;;;;;;;39.03;26.78;102258.78;5055013;28;20035;-66
2022/08/10 09:06:36;;;;;;;3.28;1.40;;;;;;;39.14;25.63;102261.28;5054789;28;20111;-66
2022/08/10 09:09:20;;;;;;;2.78;1.60;;;;;;;39.25;26.37;102256.50;5056089;28;20421;-66
2022/08/10 09:12:31;;;;;;;1.50;1.13;;;;;;;39.36;26.01;102255.31;5054829;28;20075;-66
2022/08/10 09:15:28;;;;;;;4.13;1.80;;;;;;;39.49;26.28;102249.94;5053346;28;20037;-66
2022/08/10 09:18:20;;;;;;;5.32;1.17;;;;;;;39.65;25.88;102249.84;5055601;28;20052;-66
2022/08/10 09:20:48;;;;;;;3.65;1.90;;;;;;;39.77;25.62;102242.78;5054712;28;20025;-66
2022/08/10 09:23:23;;;;;;;5.53;1.40;;;;;;;39.91;25.43;102241.00;5054337;28;20124;-66
2022/08/10 09:26:02;;;;;;;5.05;1.35;;;;;;;40.05;24.83;102247.63;5037999;28;20485;-66
2022/08/10 09:28:33;;;;;;;4.85;1.60;;;;;;;40.21;25.00;102239.09;5054485;28;20028;-66
2022/08/10 09:31:10;;;;;;;5.65;1.75;;;;;;;40.34;24.32;102244.91;5054945;28;20035;-66
2022/08/10 09:34:09;;;;;;;6.68;1.42;;;;;;;40.48;24.44;102228.19;5054427;28;20024;-66
2022/08/10 09:36:49;;;;;;;3.92;1.95;;;;;;;40.55;24.69;102243.63;5054380;28;20108;-66
2022/08/10 09:39:42;;;;;;;2.55;1.65;;;;;;;40.62;23.90;102235.66;5054367;28;20363;-66
2022/08/10 09:42:44;;;;;;;1.90;1.45;;;;;;;40.79;24.21;102218.31;5054284;28;20021;-66
2022/08/10 09:45:23;;;;;;;3.78;1.55;;;;;;;40.92;24.20;102228.91;5054262;28;20394;-66
2022/08/10 09:47:51;;;;;;;1.70;1.60;;;;;;;41.05;23.44;102233.81;5037376;28;20025;-66
2022/08/10 09:50:43;;;;;;;5.05;1.52;;;;;;;41.17;23.60;102230.56;5053830;28;20056;-66
2022/08/10 09:53:23;;;;;;;2.05;1.65;;;;;;;41.30;22.83;102224.19;5053211;28;20032;-66
2022/08/10 09:56:13;;;;;;;4.10;1.30;;;;;;;41.47;23.31;102218.94;5054013;28;20021;-66
2022/08/10 09:59:03;;;;;;;3.85;1.58;;;;;;;41.85;22.83;102208.56;5037385;28;20496;-66
2022/08/10 10:01:38;;;;;;;4.43;2.03;;;;;;;42.38;22.27;102209.91;5055159;28;20021;-66
2022/08/10 10:04:06;;;;;;;6.65;3.60;;;;;;;43.06;21.97;102206.38;5053867;28;20017;-66
2022/08/10 10:06:38;;;;;;;5.18;2.20;;;;;;;43.96;20.97;102197.84;5054917;28;20032;-66
2022/08/10 10:09:18;;;;;;;4.43;1.70;;;;;;;45.40;19.91;102208.59;5053788;28;20059;-67
2022/08/10 10:12:05;;;;;;;2.72;1.63;;;;;;;46.38;19.26;102205.88;5053725;28;20112;-67
2022/08/10 10:17:43;;;;;;;4.63;1.52;;;;;;;45.31;19.78;102193.59;5054802;28;20031;-65
2022/08/10 10:20:37;;;;;;;3.47;1.40;;;;;;;45.05;20.28;102188.66;5053335;28;20067;-65
2022/08/10 10:23:40;;;;;;;3.30;1.55;;;;;;;44.92;19.89;102186.81;5053140;28;20525;-66
2022/08/10 10:26:43;;;;;;;1.65;1.30;;;;;;;44.94;19.83;102181.66;5054447;28;20111;-67
2022/08/10 10:29:35;;;;;;;1.65;1.45;;;;;;;45.03;19.88;102174.00;5054285;28;20775;-66
2022/08/10 10:32:18;;;;;;;3.30;1.80;;;;;;;45.08;19.68;102173.84;5053179;28;20025;-67
2022/08/10 10:34:52;;;;;;;3.35;1.90;;;;;;;45.17;19.47;102170.22;5036371;28;20056;-66
2022/08/10 10:37:19;;;;;;;7.88;1.63;;;;;;;45.29;19.53;102167.56;5054304;28;20028;-67
2022/08/10 10:39:50;;;;;;;3.90;1.70;;;;;;;45.50;18.88;102168.59;5053081;28;20099;-66
2022/08/10 10:42:29;;;;;;;2.80;1.83;;;;;;;45.72;18.79;102157.13;5036271;28;20021;-67
2022/08/10 10:45:14;;;;;;;1.65;1.45;;;;;;;45.95;18.71;102164.28;5054073;28;20499;-67
2022/08/10 10:47:50;;;;;;;4.20;1.65;;;;;;;46.08;18.43;102160.44;5036145;28;20020;-66
2022/08/10 10:50:38;;;;;;;1.73;1.55;;;;;;;46.22;18.31;102152.56;5052796;28;20033;-66
2022/08/10 10:53:23;;;;;;;5.32;1.63;;;;;;;46.40;18.27;102141.19;5052722;28;20025;-66
2022/08/10 10:56:13;;;;;;;3.05;1.80;;;;;;;46.51;18.13;102142.47;5052701;28;20021;-67
2022/08/10 10:58:55;;;;;;;1.50;1.40;;;;;;;46.65;17.78;102148.75;5053945;28;20029;-66
2022/08/10 11:01:37;;;;;;;1.70;1.60;;;;;;;46.79;17.90;102143.72;5054040;28;20046;-67
2022/08/10 11:04:14;;;;;;;2.67;1.65;;;;;;;46.82;17.24;102151.53;5053836;28;20036;-66
2022/08/10 11:07:04;;;;;;;2.05;1.48;;;;;;;46.82;17.31;102148.69;5053682;28;20076;-67
2022/08/10 11:09:40;;;;;;;9.20;2.72;;;;;;;46.88;17.25;102130.28;5052663;28;20386;-66
2022/08/10 11:12:16;;;;;;;2.65;1.65;;;;;;;46.98;16.98;102141.25;5052704;28;20067;-67
2022/08/10 11:14:59;;;;;;;1.88;1.42;;;;;;;47.04;16.87;102127.69;5052582;28;20021;-67
2022/08/10 11:17:36;;;;;;;2.58;1.52;;;;;;;47.20;16.97;102135.28;5052428;28;20033;-67
2022/08/10 11:20:08;;;;;;;5.03;1.77;;;;;;;47.33;17.01;102128.47;5035699;28;20031;-67
2022/08/10 11:23:04;;;;;;;1.58;1.48;;;;;;;47.43;16.48;102129.25;5053461;28;20526;-67
2022/08/10 11:25:31;;;;;;;2.65;1.60;;;;;;;47.41;16.66;102126.72;5053661;28;20079;-67
2022/08/10 11:28:09;;;;;;;1.70;1.60;;;;;;;47.38;16.45;102122.56;5052469;28;20032;-66
2022/08/10 11:30:53;;;;;;;2.65;1.90;;;;;;;47.40;16.19;102119.41;5052245;28;20031;-67
2022/08/10 11:33:43;;;;;;;2.53;1.35;;;;;;;47.36;16.15;102119.25;5053545;28;20099;-67
2022/08/10 11:36:28;;;;;;;2.90;1.52;;;;;;;47.23;15.97;102106.19;5052331;28;20021;-67
2022/08/10 11:39:09;;;;;;;3.42;1.40;;;;;;;47.16;16.05;102099.38;5052233;28;20406;-67
2022/08/10 11:41:38;;;;;;;4.05;1.20;;;;;;;47.06;16.20;102099.75;5052129;28;20029;-66
2022/08/10 11:44:22;;;;;;;3.83;1.42;;;;;;;47.10;16.43;102104.41;5052175;28;20024;-66
2022/08/10 11:46:57;;;;;;;2.55;1.20;;;;;;;47.26;16.27;102105.50;5053186;28;20063;-67
2022/08/10 11:49:31;;;;;;;1.75;1.30;;;;;;;47.33;15.77;102104.91;5051984;28;20025;-67